KCMX/CMX METAR and TAF weather

Enter ICAO airport designator
Station Type Date Time Source
KCMX METAR 2021/09/25 11:53 UTC NOAA

KCMX 251153Z AUTO 24006KT 10SM FEW033 BKN060 OVC080 11/08 A2974 RMK AO2 SLP075 60001 70040 T01060078 10106 20072 53004


Station Type Date Time Source
KCMX Decoded METAR 2021/09/25 11:53 UTC NOAA

HANCOCK HOUGHTON CTY. MEMO, MI, United States (KCMX) 47-10N 088-29W 326M
Sep 25, 2021 - 07:53 AM EDT / 2021.09.25 1153 UTC
Wind: from the WSW (240 degrees) at 7 MPH (6 KT):0
Visibility: 10 mile(s):0
Sky conditions: overcast
Temperature: 51.1 F (10.6 C)
Dew Point: 46.0 F (7.8 C)
Relative Humidity: 82%
Pressure (altimeter): 29.74 in. Hg (1007 hPa)
Pressure tendency: 0.01 inches (0.4 hPa) higher than three hours ago
ob: KCMX 251153Z AUTO 24006KT 10SM FEW033 BKN060 OVC080 11/08 A2974 RMK AO2 SLP075 60001 70040 T01060078 10106 20072 53004
cycle: 12

Station Type Date Time Source
KCMX TAF 2021/09/25 12:36 UTC NOAA

TAF KCMX 251133Z 2512/2612 27011G20KT P6SM VCSH BKN045
FM251500 29020G30KT P6SM VCSH BKN040
FM260100 28008KT P6SM BKN050

Example: see airport list